createdAt,value
2019-01-08T00:00:25.191Z,5.57
2019-01-08T00:02:53.762Z,6.20
2019-01-08T00:05:23.061Z,8.33
2019-01-08T00:07:51.618Z,7.60
2019-01-08T00:10:20.627Z,5.90
2019-01-08T00:12:49.180Z,6.63
2019-01-08T00:15:18.211Z,6.90
2019-01-08T00:17:46.781Z,6.23
2019-01-08T00:20:15.458Z,6.57
2019-01-08T00:22:44.019Z,6.10
2019-01-08T00:25:12.939Z,6.07
2019-01-08T00:27:41.517Z,6.77
2019-01-08T00:30:10.189Z,7.43
2019-01-08T00:32:38.749Z,6.37
2019-01-08T00:35:07.600Z,5.30
2019-01-08T00:37:36.524Z,6.93
2019-01-08T00:40:07.524Z,3.57
2019-01-08T00:42:36.616Z,5.90
2019-01-08T00:45:05.767Z,6.50
2019-01-08T00:47:34.327Z,6.50
2019-01-08T00:50:06.360Z,4.70
2019-01-08T00:52:34.923Z,6.67
2019-01-08T00:55:03.733Z,5.00
2019-01-08T00:57:32.310Z,5.33
2019-01-08T01:00:01.279Z,5.87
2019-01-08T01:02:29.851Z,3.93
2019-01-08T01:04:58.532Z,4.93
2019-01-08T01:07:27.103Z,6.13
2019-01-08T01:09:55.783Z,5.50
2019-01-08T01:12:25.417Z,5.30
2019-01-08T01:14:54.434Z,3.90
2019-01-08T01:17:22.997Z,5.93
2019-01-08T01:19:51.833Z,5.40
2019-01-08T01:22:20.389Z,5.30
2019-01-08T01:24:48.968Z,4.43
2019-01-08T01:27:17.631Z,4.67
2019-01-08T01:29:46.553Z,4.50
2019-01-08T01:32:15.111Z,4.47
2019-01-08T01:34:43.682Z,5.03
2019-01-08T01:37:12.777Z,3.10
2019-01-08T01:39:41.352Z,4.00
2019-01-08T01:42:10.058Z,4.57
2019-01-08T01:44:38.975Z,4.20
2019-01-08T01:47:07.971Z,3.87
2019-01-08T01:49:36.535Z,4.20
2019-01-08T01:52:05.221Z,4.43
2019-01-08T01:54:33.890Z,3.03
2019-01-08T01:57:02.446Z,4.50
2019-01-08T01:59:31.183Z,3.10
2019-01-08T02:01:59.759Z,3.30
2019-01-08T02:04:28.315Z,3.17
2019-01-08T02:06:57.551Z,2.20
2019-01-08T02:09:26.255Z,3.27
2019-01-08T02:11:54.825Z,3.07
2019-01-08T02:14:23.377Z,3.73
2019-01-08T02:16:52.203Z,3.40
2019-01-08T02:19:20.759Z,2.00
2019-01-08T02:21:49.579Z,3.23
2019-01-08T02:24:18.155Z,3.00
2019-01-08T02:26:46.949Z,3.27
2019-01-08T02:29:16.591Z,1.53
2019-01-08T02:31:46.163Z,3.30
2019-01-08T02:34:34.067Z,2.50
2019-01-08T02:37:03.405Z,1.50
2019-01-08T02:39:32.183Z,2.20
2019-01-08T02:42:01.431Z,2.60
2019-01-08T02:44:30.190Z,2.83
2019-01-08T02:46:59.287Z,2.60
2019-01-08T02:49:27.921Z,2.23
2019-01-08T02:51:56.632Z,3.40
2019-01-08T02:54:25.235Z,2.50
2019-01-08T02:56:54.326Z,2.20
2019-01-08T02:59:25.212Z,2.70
2019-01-08T03:01:53.317Z,2.63
2019-01-08T03:04:22.209Z,2.47
2019-01-08T03:06:50.777Z,2.10
2019-01-08T03:09:19.585Z,2.30
2019-01-08T03:11:48.150Z,1.80
2019-01-08T03:14:17.212Z,1.90
2019-01-08T03:16:45.945Z,1.90
2019-01-08T03:19:14.503Z,2.10
2019-01-08T03:21:43.440Z,1.37
2019-01-08T03:24:12.097Z,1.87
2019-01-08T03:26:40.791Z,2.00
2019-01-08T03:29:09.358Z,1.80
2019-01-08T03:31:38.588Z,1.67
2019-01-08T03:34:07.150Z,1.80
2019-01-08T03:36:35.706Z,1.70
2019-01-08T03:39:05.668Z,1.87
2019-01-08T03:41:34.789Z,1.53
2019-01-08T03:44:03.717Z,1.17
2019-01-08T03:46:32.537Z,1.57
2019-01-08T03:49:01.320Z,1.60
2019-01-08T03:51:29.881Z,1.33
2019-01-08T03:53:58.814Z,1.70
2019-01-08T03:56:27.368Z,1.17
2019-01-08T03:58:56.045Z,1.27
2019-01-08T04:01:24.613Z,1.80
2019-01-08T04:03:53.335Z,1.23
2019-01-08T04:06:21.895Z,1.37
2019-01-08T04:08:50.709Z,1.40
2019-01-08T04:11:19.259Z,1.07
2019-01-08T04:13:48.334Z,1.50
2019-01-08T04:16:16.902Z,1.40
2019-01-08T04:18:45.715Z,1.40
2019-01-08T04:21:14.275Z,1.40
2019-01-08T04:23:43.042Z,1.40
2019-01-08T04:26:11.796Z,1.37
2019-01-08T04:28:40.665Z,1.53
2019-01-08T04:31:09.672Z,1.40
2019-01-08T04:33:38.791Z,1.40
2019-01-08T04:36:07.353Z,1.47
2019-01-08T04:38:36.163Z,1.10
2019-01-08T04:41:04.798Z,1.20
2019-01-08T04:43:33.533Z,1.13
2019-01-08T04:46:02.093Z,0.90
2019-01-08T04:48:30.905Z,1.00
2019-01-08T04:50:59.469Z,1.10
2019-01-08T04:53:28.281Z,1.00
2019-01-08T04:55:56.848Z,1.10
2019-01-08T04:58:25.484Z,0.97
2019-01-08T05:00:54.349Z,1.00
2019-01-08T05:03:22.913Z,1.10
2019-01-08T05:05:53.518Z,1.20
2019-01-08T05:08:21.920Z,1.33
2019-01-08T05:10:50.779Z,1.00
2019-01-08T05:13:19.342Z,1.50
2019-01-08T05:15:48.098Z,1.00
2019-01-08T05:18:16.988Z,1.07
2019-01-08T05:20:45.543Z,0.60
2019-01-08T05:23:14.308Z,1.37
2019-01-08T05:25:43.380Z,1.10
2019-01-08T05:28:12.439Z,0.90
2019-01-08T05:30:41.055Z,1.10
2019-01-08T05:33:09.789Z,0.97
2019-01-08T05:35:38.331Z,1.20
2019-01-08T05:38:06.873Z,1.03
2019-01-08T05:40:35.671Z,0.80
2019-01-08T05:43:04.232Z,1.43
2019-01-08T05:45:33.232Z,0.73
2019-01-08T05:48:04.764Z,1.07
2019-01-08T05:50:33.900Z,1.10
2019-01-08T05:53:02.459Z,1.93
2019-01-08T05:55:31.129Z,0.90
2019-01-08T05:57:59.678Z,0.90
2019-01-08T06:00:31.202Z,0.60
2019-01-08T06:02:59.752Z,1.03
2019-01-08T06:05:28.532Z,0.90
2019-01-08T06:07:57.089Z,0.77
2019-01-08T06:10:25.831Z,1.00
2019-01-08T06:12:54.390Z,1.10
2019-01-08T06:15:23.108Z,1.03
2019-01-08T06:17:51.661Z,1.17
2019-01-08T06:20:20.782Z,0.80
2019-01-08T06:22:49.699Z,0.90
2019-01-08T06:25:18.422Z,0.83
2019-01-08T06:27:46.971Z,1.07
2019-01-08T06:30:15.728Z,1.13
2019-01-08T06:32:44.275Z,1.07
2019-01-08T06:35:13.102Z,1.20
2019-01-08T06:37:41.767Z,1.07
2019-01-08T06:40:10.574Z,0.80
2019-01-08T06:42:39.150Z,0.90
2019-01-08T06:45:07.892Z,1.30
2019-01-08T06:47:37.646Z,0.90
2019-01-08T06:50:08.578Z,1.23
2019-01-08T06:52:37.118Z,1.00
2019-01-08T06:55:08.111Z,1.10
2019-01-08T06:57:37.111Z,1.30
2019-01-08T07:00:09.162Z,1.53
2019-01-08T07:02:38.399Z,1.30
2019-01-08T07:05:07.370Z,0.87
2019-01-08T07:07:35.996Z,0.80
2019-01-08T07:10:06.894Z,1.23
2019-01-08T07:12:35.448Z,1.20
2019-01-08T07:15:04.774Z,1.20
2019-01-08T07:17:35.216Z,1.60
2019-01-08T07:20:04.481Z,1.00
2019-01-08T07:22:34.560Z,1.47
2019-01-08T07:25:03.408Z,1.17
2019-01-08T07:27:32.151Z,1.10
2019-01-08T07:30:01.257Z,0.57
2019-01-08T07:32:29.841Z,1.30
2019-01-08T07:34:58.499Z,1.63
2019-01-08T07:37:27.060Z,1.10
2019-01-08T07:39:55.928Z,1.30
2019-01-08T07:42:24.488Z,1.37
2019-01-08T07:44:53.509Z,1.90
2019-01-08T07:47:22.062Z,1.40
2019-01-08T07:49:50.706Z,1.97
2019-01-08T07:52:19.771Z,1.30
2019-01-08T07:54:48.324Z,1.47
2019-01-08T07:57:17.416Z,1.50
2019-01-08T07:59:46.140Z,1.63
2019-01-08T08:02:14.703Z,1.80
2019-01-08T08:04:47.469Z,1.50
2019-01-08T08:07:13.648Z,1.33
2019-01-08T08:09:42.200Z,1.27
2019-01-08T08:12:11.714Z,1.13
2019-01-08T08:14:40.271Z,1.43
2019-01-08T08:17:08.941Z,1.70
2019-01-08T08:19:37.486Z,1.73
2019-01-08T08:22:06.452Z,1.27
2019-01-08T08:24:34.998Z,1.77
2019-01-08T08:27:03.710Z,1.53
2019-01-08T08:29:32.274Z,1.97
2019-01-08T08:32:01.201Z,1.53
2019-01-08T08:34:29.856Z,1.70
2019-01-08T08:36:58.996Z,1.40
2019-01-08T08:39:27.562Z,1.30
2019-01-08T08:41:56.236Z,2.27
2019-01-08T08:44:24.797Z,1.27
2019-01-08T08:46:53.516Z,0.93
2019-01-08T08:49:22.076Z,3.50
2019-01-08T08:51:51.095Z,1.20
2019-01-08T08:54:19.662Z,1.20
2019-01-08T08:56:48.332Z,1.67
2019-01-08T08:59:16.896Z,1.37
2019-01-08T09:01:45.560Z,1.20
2019-01-08T09:04:14.111Z,1.77
2019-01-08T09:06:43.399Z,3.10
2019-01-08T09:09:11.965Z,1.50
2019-01-08T09:11:41.043Z,1.20
2019-01-08T09:14:09.668Z,1.43
2019-01-08T09:16:38.366Z,1.20
2019-01-08T09:19:06.931Z,1.70
2019-01-08T09:21:35.606Z,1.13
2019-01-08T09:24:04.234Z,1.63
2019-01-08T09:26:33.313Z,1.23
2019-01-08T09:29:01.864Z,1.40
2019-01-08T09:31:30.539Z,1.50
2019-01-08T09:33:59.106Z,1.50
2019-01-08T09:36:27.772Z,2.40
2019-01-08T09:38:56.325Z,1.60
2019-01-08T09:41:25.010Z,1.23
2019-01-08T09:43:53.579Z,1.50
2019-01-08T09:46:22.216Z,1.07
2019-01-08T09:48:51.275Z,1.23
2019-01-08T09:51:19.839Z,2.77
2019-01-08T09:53:48.645Z,1.27
2019-01-08T09:56:17.215Z,1.57
2019-01-08T09:58:46.012Z,1.87
2019-01-08T10:01:23.575Z,1.70
2019-01-08T10:03:45.646Z,2.63
2019-01-08T10:06:14.200Z,2.30
2019-01-08T10:08:43.423Z,1.30
2019-01-08T10:11:11.983Z,1.67
2019-01-08T10:13:40.667Z,2.27
2019-01-08T10:16:09.237Z,1.30
2019-01-08T10:18:37.934Z,1.80
2019-01-08T10:21:06.509Z,1.77
2019-01-08T10:23:35.333Z,1.30
2019-01-08T10:26:03.961Z,1.50
2019-01-08T10:28:32.917Z,1.47
2019-01-08T10:31:01.471Z,1.43
2019-01-08T10:33:30.158Z,1.77
2019-01-08T10:35:58.769Z,1.87
2019-01-08T10:38:27.468Z,1.33
2019-01-08T10:40:56.009Z,1.40
2019-01-08T10:43:24.757Z,2.00
2019-01-08T10:45:55.997Z,2.03
2019-01-08T10:48:25.002Z,2.47
2019-01-08T10:50:53.556Z,2.27
2019-01-08T10:53:22.245Z,1.90
2019-01-08T10:55:50.938Z,1.90
2019-01-08T10:58:19.493Z,1.97
2019-01-08T11:00:48.448Z,4.23
2019-01-08T11:03:17.007Z,2.20
2019-01-08T11:05:45.562Z,2.87
2019-01-08T11:08:15.733Z,1.90
2019-01-08T11:10:44.297Z,1.83
2019-01-08T11:13:12.985Z,1.80
2019-01-08T11:15:41.550Z,1.90
2019-01-08T11:18:10.231Z,1.73
2019-01-08T11:20:38.784Z,1.60
2019-01-08T11:23:07.756Z,1.53
2019-01-08T11:25:36.386Z,1.40
2019-01-08T11:28:05.219Z,2.60
2019-01-08T11:30:33.774Z,2.77
2019-01-08T11:33:02.533Z,2.00
2019-01-08T11:35:31.083Z,2.00
2019-01-08T11:38:00.136Z,1.47
2019-01-08T11:40:28.688Z,2.00
2019-01-08T11:42:57.587Z,2.80
2019-01-08T11:45:26.157Z,1.90
2019-01-08T11:48:03.579Z,1.80
2019-01-08T11:50:25.560Z,1.50
2019-01-08T11:52:54.395Z,2.77
2019-01-08T11:55:23.468Z,1.90
2019-01-08T11:57:52.027Z,2.83
2019-01-08T12:00:20.847Z,2.67
2019-01-08T12:02:49.402Z,2.23
2019-01-08T12:05:18.207Z,1.73
2019-01-08T12:07:46.761Z,2.10
2019-01-08T12:10:15.766Z,2.33
2019-01-08T12:12:44.322Z,1.93
2019-01-08T12:15:13.509Z,1.60
2019-01-08T12:17:42.071Z,1.40
2019-01-08T12:20:12.939Z,2.07
2019-01-08T12:22:41.565Z,1.60
2019-01-08T12:25:10.562Z,1.70
2019-01-08T12:27:39.136Z,1.47
2019-01-08T12:30:10.078Z,2.00
2019-01-08T12:32:38.653Z,1.83
2019-01-08T12:35:07.571Z,1.87
2019-01-08T12:37:36.187Z,1.33
2019-01-08T12:40:06.739Z,1.57
2019-01-08T12:42:35.306Z,0.80
2019-01-08T12:45:04.572Z,1.97
2019-01-08T12:47:33.560Z,1.53
2019-01-08T12:50:02.230Z,1.13
2019-01-08T12:52:30.861Z,1.53
2019-01-08T12:54:59.535Z,1.40
2019-01-08T12:57:28.094Z,1.70
2019-01-08T12:59:56.787Z,1.33
2019-01-08T13:02:25.847Z,2.40
2019-01-08T13:04:54.877Z,0.87
2019-01-08T13:07:23.445Z,1.27
2019-01-08T13:09:52.138Z,1.90
2019-01-08T13:12:20.711Z,1.40
2019-01-08T13:14:49.379Z,1.90
2019-01-08T13:17:17.952Z,1.63
2019-01-08T13:19:46.971Z,1.30
2019-01-08T13:22:15.681Z,1.43
2019-01-08T13:24:44.251Z,1.80
2019-01-08T13:27:13.233Z,1.70
2019-01-08T13:29:41.973Z,1.57
2019-01-08T13:32:10.617Z,1.47
2019-01-08T13:34:42.732Z,1.43
2019-01-08T13:37:11.303Z,1.73
2019-01-08T13:39:39.985Z,1.53
2019-01-08T13:42:08.538Z,1.93
2019-01-08T13:44:37.099Z,1.70
2019-01-08T13:47:05.782Z,1.53
2019-01-08T13:49:34.351Z,1.40
2019-01-08T13:52:03.179Z,1.80
2019-01-08T13:54:31.946Z,2.07
2019-01-08T13:57:00.513Z,1.57
2019-01-08T13:59:29.126Z,1.27
2019-01-08T14:01:58.322Z,1.90
2019-01-08T14:04:26.919Z,1.93
2019-01-08T14:06:55.582Z,1.43
2019-01-08T14:09:24.232Z,1.50
2019-01-08T14:11:53.266Z,1.27
2019-01-08T14:14:21.900Z,1.60
2019-01-08T14:16:51.876Z,1.83
2019-01-08T14:19:20.532Z,2.10
2019-01-08T14:21:49.247Z,0.70
2019-01-08T14:24:17.872Z,1.10
2019-01-08T14:26:46.828Z,1.53
2019-01-08T14:29:15.376Z,1.03
2019-01-08T14:31:44.404Z,1.30
2019-01-08T14:34:12.964Z,1.80
2019-01-08T14:36:41.779Z,2.00
2019-01-08T14:39:10.341Z,1.23
2019-01-08T14:41:39.351Z,1.47
2019-01-08T14:44:07.980Z,1.20
2019-01-08T14:46:36.809Z,1.00
2019-01-08T14:49:05.525Z,1.20
2019-01-08T14:51:34.514Z,1.30
2019-01-08T14:54:03.072Z,1.03
2019-01-08T14:56:31.808Z,1.33
2019-01-08T14:59:00.435Z,1.20
2019-01-08T15:01:29.854Z,1.07
2019-01-08T15:03:58.416Z,1.20
2019-01-08T15:06:27.105Z,0.77
2019-01-08T15:08:55.679Z,0.90
2019-01-08T15:11:25.005Z,1.17
2019-01-08T15:13:53.571Z,0.73
2019-01-08T15:16:22.382Z,0.97
2019-01-08T15:18:50.938Z,1.57
2019-01-08T15:21:19.774Z,1.03
2019-01-08T15:23:48.513Z,0.80
2019-01-08T15:26:17.232Z,1.43
2019-01-08T15:28:45.783Z,1.70
2019-01-08T15:31:16.728Z,1.03
2019-01-08T15:33:44.908Z,2.10
2019-01-08T15:36:13.874Z,1.30
2019-01-08T15:38:42.469Z,1.90
2019-01-08T15:41:11.167Z,1.57
2019-01-08T15:43:39.738Z,1.77
2019-01-08T15:46:08.425Z,2.57
2019-01-08T15:48:36.998Z,2.10
2019-01-08T15:51:05.858Z,1.43
2019-01-08T15:53:34.652Z,1.90
2019-01-08T15:56:03.325Z,2.27
2019-01-08T15:58:31.900Z,2.03
2019-01-08T16:01:01.214Z,1.80
2019-01-08T16:03:30.394Z,3.27
2019-01-08T16:05:58.963Z,2.03
2019-01-08T16:08:27.869Z,2.47
2019-01-08T16:10:56.437Z,2.87
2019-01-08T16:13:25.005Z,2.20
2019-01-08T16:15:53.922Z,3.70
2019-01-08T16:18:23.013Z,1.83
2019-01-08T16:20:51.576Z,2.73
2019-01-08T16:23:20.594Z,4.27
2019-01-08T16:25:49.231Z,2.87
2019-01-08T16:28:18.162Z,3.40
2019-01-08T16:30:46.738Z,5.40
2019-01-08T16:33:16.530Z,3.17
2019-01-08T16:35:45.231Z,4.27
2019-01-08T16:38:14.272Z,2.50
2019-01-08T16:40:42.815Z,3.37
2019-01-08T16:43:11.499Z,3.87
2019-01-08T16:45:40.073Z,2.70
2019-01-08T16:48:08.848Z,4.27
2019-01-08T16:50:37.407Z,2.60
2019-01-08T16:53:06.094Z,2.30
2019-01-08T16:55:34.675Z,2.03
2019-01-08T16:58:03.628Z,2.47
2019-01-08T17:00:32.251Z,1.90
2019-01-08T17:03:01.312Z,1.60
2019-01-08T17:05:29.862Z,2.10
2019-01-08T17:07:58.782Z,2.03
2019-01-08T17:10:27.352Z,2.30
2019-01-08T17:12:56.191Z,3.70
2019-01-08T17:15:24.772Z,2.40
2019-01-08T17:17:53.860Z,2.50
2019-01-08T17:20:22.605Z,1.40
2019-01-08T17:22:51.526Z,1.60
2019-01-08T17:25:20.091Z,3.07
2019-01-08T17:27:48.849Z,2.90
2019-01-08T17:30:17.416Z,1.83
2019-01-08T17:32:46.104Z,2.90
2019-01-08T17:35:14.660Z,2.73
2019-01-08T17:37:43.751Z,1.30
2019-01-08T17:40:12.323Z,2.03
2019-01-08T17:42:40.885Z,2.50
2019-01-08T17:45:10.595Z,1.53
2019-01-08T17:47:39.160Z,2.40
2019-01-08T17:50:07.941Z,2.20
2019-01-08T17:52:36.510Z,1.63
2019-01-08T17:55:06.077Z,2.23
2019-01-08T17:57:34.650Z,1.77
2019-01-08T18:00:04.738Z,1.60
2019-01-08T18:02:33.673Z,1.70
2019-01-08T18:05:03.061Z,3.13
2019-01-08T18:07:33.566Z,1.70
2019-01-08T18:10:02.168Z,1.70
2019-01-08T18:12:30.957Z,2.67
2019-01-08T18:14:59.518Z,2.53
2019-01-08T18:17:28.531Z,2.77
2019-01-08T18:19:57.626Z,2.13
2019-01-08T18:22:26.296Z,3.13
2019-01-08T18:24:55.049Z,1.80
2019-01-08T18:27:23.629Z,2.27
2019-01-08T18:29:52.595Z,2.20
2019-01-08T18:32:21.153Z,2.73
2019-01-08T18:34:50.148Z,2.90
2019-01-08T18:37:18.790Z,2.70
2019-01-08T18:39:47.734Z,1.60
2019-01-08T18:42:16.288Z,2.43
2019-01-08T18:44:44.997Z,2.30
2019-01-08T18:47:13.575Z,3.30
2019-01-08T18:49:42.277Z,3.60
2019-01-08T18:52:10.857Z,3.00
2019-01-08T18:54:39.648Z,3.03
2019-01-08T18:57:08.229Z,2.90
2019-01-08T18:59:37.422Z,2.17
2019-01-08T19:02:06.068Z,2.00
2019-01-08T19:04:35.135Z,2.90
2019-01-08T19:07:03.699Z,4.13
2019-01-08T19:09:33.394Z,2.80
2019-01-08T19:12:01.958Z,2.17
2019-01-08T19:14:33.663Z,2.30
2019-01-08T19:17:02.853Z,3.30
2019-01-08T19:19:31.432Z,3.03
2019-01-08T19:22:00.212Z,2.83
2019-01-08T19:24:28.915Z,2.73
2019-01-08T19:26:58.650Z,2.00
2019-01-08T19:29:27.605Z,2.40
2019-01-08T19:31:56.689Z,2.87
2019-01-08T19:34:25.250Z,2.60
2019-01-08T19:36:53.927Z,1.63
2019-01-08T19:39:22.491Z,1.50
2019-01-08T19:41:51.447Z,1.30
2019-01-08T19:44:20.009Z,1.53
2019-01-08T19:46:50.435Z,1.00
2019-01-08T19:49:19.065Z,1.43
2019-01-08T19:51:48.024Z,1.27
2019-01-08T19:54:16.709Z,1.27
2019-01-08T19:56:45.710Z,1.20
2019-01-08T19:59:14.277Z,1.40
2019-01-08T20:01:43.029Z,1.33
2019-01-08T20:04:17.844Z,1.40
2019-01-08T20:06:42.418Z,1.40
2019-01-08T20:09:11.077Z,1.37
2019-01-08T20:11:39.758Z,1.43
2019-01-08T20:14:08.646Z,1.70
2019-01-08T20:16:37.206Z,1.07
2019-01-08T20:19:05.908Z,1.60
2019-01-08T20:21:34.461Z,1.97
2019-01-08T20:24:06.399Z,1.63
2019-01-08T20:26:33.918Z,2.93
2019-01-08T20:29:02.492Z,2.40
2019-01-08T20:31:31.040Z,1.43
2019-01-08T20:34:00.386Z,1.90
2019-01-08T20:36:28.954Z,1.47
2019-01-08T20:38:57.770Z,1.27
2019-01-08T20:41:26.574Z,1.57
2019-01-08T20:43:55.352Z,1.83
2019-01-08T20:46:23.907Z,1.47
2019-01-08T20:48:52.921Z,1.00
2019-01-08T20:51:21.482Z,2.17
2019-01-08T20:53:50.498Z,1.30
2019-01-08T20:56:21.713Z,1.70
2019-01-08T20:58:50.516Z,2.00
2019-01-08T21:01:19.094Z,1.70
2019-01-08T21:03:48.314Z,1.30
2019-01-08T21:06:16.862Z,1.57
2019-01-08T21:08:45.888Z,1.43
2019-01-08T21:11:14.721Z,0.90
2019-01-08T21:13:43.668Z,1.40
2019-01-08T21:16:12.225Z,1.43
2019-01-08T21:18:41.029Z,2.67
2019-01-08T21:21:09.600Z,2.43
2019-01-08T21:23:38.418Z,1.20
2019-01-08T21:26:07.021Z,2.60
2019-01-08T21:28:35.934Z,2.40
2019-01-08T21:31:04.564Z,2.40
2019-01-08T21:33:33.356Z,2.10
2019-01-08T21:36:01.916Z,3.10
2019-01-08T21:38:30.719Z,2.50
2019-01-08T21:40:59.291Z,2.43
2019-01-08T21:43:28.148Z,2.10
2019-01-08T21:45:56.867Z,1.80
2019-01-08T21:48:29.021Z,1.57
2019-01-08T21:50:57.752Z,1.70
2019-01-08T21:53:27.008Z,1.30
2019-01-08T21:55:55.528Z,1.47
2019-01-08T21:58:24.313Z,1.37
2019-01-08T22:00:52.924Z,1.37
2019-01-08T22:03:22.294Z,2.13
2019-01-08T22:05:50.856Z,2.33
2019-01-08T22:08:19.872Z,1.67
2019-01-08T22:10:48.515Z,2.47
2019-01-08T22:13:17.249Z,3.13
2019-01-08T22:15:45.795Z,2.40
2019-01-08T22:18:14.620Z,2.83
2019-01-08T22:20:43.186Z,1.80
2019-01-08T22:23:11.992Z,3.30
2019-01-08T22:25:40.552Z,2.07
2019-01-08T22:28:09.496Z,2.13
2019-01-08T22:30:38.072Z,2.63
2019-01-08T22:33:06.622Z,2.23
2019-01-08T22:35:35.410Z,2.30
2019-01-08T22:38:03.977Z,2.47
2019-01-08T22:40:33.000Z,2.47
2019-01-08T22:43:01.655Z,2.43
2019-01-08T22:45:30.770Z,2.30
2019-01-08T22:47:59.422Z,2.50
2019-01-08T22:50:28.360Z,2.80
2019-01-08T22:52:56.914Z,2.13
2019-01-08T22:55:25.720Z,2.13
2019-01-08T22:57:54.284Z,1.53
2019-01-08T23:00:41.938Z,2.00
2019-01-08T23:03:10.661Z,1.00
2019-01-08T23:05:40.020Z,1.50
2019-01-08T23:08:08.688Z,2.50
2019-01-08T23:10:39.313Z,1.60
2019-01-08T23:13:08.610Z,1.43
2019-01-08T23:15:37.352Z,1.97
2019-01-08T23:18:05.923Z,2.30
2019-01-08T23:20:35.113Z,2.80
2019-01-08T23:23:03.742Z,2.70
2019-01-08T23:25:32.428Z,1.97
2019-01-08T23:28:01.070Z,2.30
2019-01-08T23:30:32.786Z,1.57
2019-01-08T23:33:01.447Z,1.60
2019-01-08T23:35:30.181Z,1.43
2019-01-08T23:37:58.825Z,1.00
2019-01-08T23:40:27.632Z,1.73
2019-01-08T23:42:56.332Z,1.17
2019-01-08T23:45:25.083Z,1.60
2019-01-08T23:47:53.642Z,1.70
2019-01-08T23:50:22.396Z,1.37
2019-01-08T23:52:56.628Z,0.97
2019-01-08T23:55:25.412Z,1.50
2019-01-08T23:57:54.054Z,0.77
